createdAt,value
2023-02-12T00:02:22.031Z,9.64
2023-02-12T00:04:48.692Z,9.64
2023-02-12T00:07:15.286Z,9.66
2023-02-12T00:09:41.950Z,9.66
2023-02-12T00:12:08.775Z,9.70
2023-02-12T00:14:37.487Z,9.74
2023-02-12T00:17:04.219Z,9.74
2023-02-12T00:19:31.206Z,9.75
2023-02-12T00:21:57.887Z,9.71
2023-02-12T00:24:24.462Z,9.63
2023-02-12T00:26:51.157Z,9.53
2023-02-12T00:29:17.744Z,9.51
2023-02-12T00:31:44.367Z,9.51
2023-02-12T00:34:11.543Z,9.51
2023-02-12T00:36:38.195Z,9.49
2023-02-12T00:39:04.825Z,9.51
2023-02-12T00:41:31.446Z,9.49
2023-02-12T00:43:58.129Z,9.43
2023-02-12T00:46:24.951Z,9.43
2023-02-12T00:48:51.676Z,9.40
2023-02-12T00:51:18.269Z,9.43
2023-02-12T00:53:44.902Z,9.39
2023-02-12T00:56:11.569Z,9.38
2023-02-12T00:58:38.142Z,9.39
2023-02-12T01:01:04.953Z,9.36
2023-02-12T01:03:31.683Z,9.35
2023-02-12T01:05:58.583Z,9.33
2023-02-12T01:08:26.637Z,9.35
2023-02-12T01:11:02.103Z,9.38
2023-02-12T01:13:30.425Z,9.36
2023-02-12T01:16:04.539Z,9.36
2023-02-12T01:18:31.193Z,9.36
2023-02-12T01:20:58.992Z,9.39
2023-02-12T01:23:25.824Z,9.36
2023-02-12T01:25:52.762Z,9.39
2023-02-12T01:28:19.715Z,9.39
2023-02-12T01:30:47.339Z,9.40
2023-02-12T01:33:13.936Z,9.38
2023-02-12T01:35:40.604Z,9.38
2023-02-12T01:38:07.224Z,9.33
2023-02-12T01:40:33.886Z,9.26
2023-02-12T01:43:02.496Z,9.22
2023-02-12T01:45:29.048Z,9.12
2023-02-12T01:47:57.008Z,9.04
2023-02-12T01:50:23.682Z,9.01
2023-02-12T01:52:56.176Z,9.01
2023-02-12T01:55:22.946Z,9.04
2023-02-12T01:57:49.831Z,9.05
2023-02-12T02:00:22.107Z,9.07
2023-02-12T02:02:53.460Z,9.05
2023-02-12T02:05:44.061Z,9.02
2023-02-12T02:08:12.488Z,9.02
2023-02-12T02:10:39.848Z,9.01
2023-02-12T02:13:42.329Z,8.98
2023-02-12T02:16:26.018Z,8.92
2023-02-12T02:19:02.672Z,8.91
2023-02-12T02:21:59.905Z,8.92
2023-02-12T02:24:53.888Z,8.88
2023-02-12T02:27:30.960Z,8.89
2023-02-12T02:30:22.640Z,8.88
2023-02-12T02:33:24.307Z,8.87
2023-02-12T02:36:05.281Z,8.87
2023-02-12T02:39:05.377Z,8.87
2023-02-12T02:41:36.197Z,8.92
2023-02-12T02:44:10.465Z,8.89
2023-02-12T02:46:46.265Z,8.88
2023-02-12T02:49:24.467Z,8.89
2023-02-12T02:51:56.737Z,8.88
2023-02-12T02:54:28.276Z,8.89
2023-02-12T02:57:01.680Z,8.91
2023-02-12T02:59:38.237Z,8.89
2023-02-12T03:02:29.398Z,8.89
2023-02-12T03:05:02.881Z,8.88
2023-02-12T03:07:36.875Z,8.87
2023-02-12T03:10:14.876Z,8.82
2023-02-12T03:12:50.045Z,8.81
2023-02-12T03:15:49.120Z,8.84
2023-02-12T03:18:26.830Z,8.88
2023-02-12T03:21:02.444Z,8.88
2023-02-12T03:23:38.636Z,8.91
2023-02-12T03:26:10.996Z,8.92
2023-02-12T03:28:39.004Z,8.92
2023-02-12T03:31:49.604Z,8.92
2023-02-12T03:34:30.232Z,8.91
2023-02-12T03:37:07.345Z,8.80
2023-02-12T03:39:42.783Z,8.67
2023-02-12T03:42:37.377Z,8.63
2023-02-12T03:45:39.567Z,8.65
2023-02-12T03:48:31.900Z,8.68
2023-02-12T03:51:31.833Z,8.74
2023-02-12T03:53:58.554Z,8.77
2023-02-12T03:56:43.019Z,8.81
2023-02-12T03:59:10.535Z,8.82
2023-02-12T04:01:37.390Z,8.85
2023-02-12T04:04:06.838Z,8.85
2023-02-12T04:06:34.054Z,8.91
2023-02-12T04:09:09.440Z,8.89
2023-02-12T04:11:59.249Z,8.88
2023-02-12T04:15:01.355Z,8.84
2023-02-12T04:18:25.416Z,8.84
2023-02-12T04:21:08.755Z,8.87
2023-02-12T04:24:00.510Z,8.85
2023-02-12T04:26:34.465Z,8.85
2023-02-12T04:29:09.849Z,8.89
2023-02-12T04:31:55.892Z,8.85
2023-02-12T04:34:53.475Z,8.81
2023-02-12T04:37:39.045Z,8.77
2023-02-12T04:40:10.364Z,8.78
2023-02-12T04:42:48.896Z,8.73
2023-02-12T04:45:22.567Z,8.71
2023-02-12T04:47:49.219Z,8.70
2023-02-12T04:50:15.948Z,8.63
2023-02-12T04:52:42.593Z,8.61
2023-02-12T04:55:09.385Z,8.56
2023-02-12T04:57:36.209Z,8.53
2023-02-12T05:00:05.828Z,8.59
2023-02-12T05:02:34.374Z,8.63
2023-02-12T05:05:01.037Z,8.63
2023-02-12T05:07:27.693Z,8.63
2023-02-12T05:09:54.815Z,8.63
2023-02-12T05:12:21.689Z,8.64
2023-02-12T05:14:48.311Z,8.61
2023-02-12T05:17:14.911Z,8.61
2023-02-12T05:19:41.482Z,8.57
2023-02-12T05:22:08.147Z,8.59
2023-02-12T05:24:34.803Z,8.57
2023-02-12T05:27:01.399Z,8.53
2023-02-12T05:29:28.020Z,8.47
2023-02-12T05:31:54.708Z,8.43
2023-02-12T05:34:21.416Z,8.40
2023-02-12T05:36:50.239Z,8.39
2023-02-12T05:39:17.283Z,8.44
2023-02-12T05:41:43.894Z,8.47
2023-02-12T05:44:12.152Z,8.43
2023-02-12T05:46:38.963Z,8.47
2023-02-12T05:49:05.702Z,8.46
2023-02-12T05:51:32.543Z,8.44
2023-02-12T05:54:01.807Z,8.43
2023-02-12T05:56:33.429Z,8.42
2023-02-12T05:59:06.433Z,8.40
2023-02-12T06:01:36.216Z,8.37
2023-02-12T06:04:05.248Z,8.39
2023-02-12T06:06:33.146Z,8.36
2023-02-12T06:09:00.193Z,8.39
2023-02-12T06:11:27.819Z,8.39
2023-02-12T06:13:54.494Z,8.33
2023-02-12T06:16:24.974Z,8.30
2023-02-12T06:18:52.300Z,8.35
2023-02-12T06:21:21.237Z,8.35
2023-02-12T06:23:49.034Z,8.35
2023-02-12T06:26:16.313Z,8.36
2023-02-12T06:28:43.773Z,8.39
2023-02-12T06:31:28.261Z,8.39
2023-02-12T06:33:58.126Z,8.40
2023-02-12T06:36:25.120Z,8.37
2023-02-12T06:38:52.321Z,8.40
2023-02-12T06:41:19.272Z,8.36
2023-02-12T06:43:45.886Z,8.39
2023-02-12T06:46:13.303Z,8.39
2023-02-12T06:48:40.118Z,8.37
2023-02-12T06:51:13.020Z,8.33
2023-02-12T06:53:40.208Z,8.36
2023-02-12T06:56:12.970Z,8.36
2023-02-12T06:58:42.460Z,8.36
2023-02-12T07:01:21.642Z,8.36
2023-02-12T07:03:51.089Z,8.32
2023-02-12T07:06:18.459Z,8.30
2023-02-12T07:08:45.187Z,8.28
2023-02-12T07:11:11.878Z,8.26
2023-02-12T07:13:40.249Z,8.32
2023-02-12T07:16:10.355Z,8.28
2023-02-12T07:18:38.079Z,8.33
2023-02-12T07:21:06.408Z,8.33
2023-02-12T07:23:33.597Z,8.35
2023-02-12T07:26:03.279Z,8.36
2023-02-12T07:28:33.742Z,8.42
2023-02-12T07:31:07.944Z,8.37
2023-02-12T07:33:35.423Z,8.30
2023-02-12T07:36:03.424Z,8.24
2023-02-12T07:38:30.190Z,8.19
2023-02-12T07:41:05.717Z,8.21
2023-02-12T07:43:32.391Z,8.29
2023-02-12T07:46:09.754Z,8.37
2023-02-12T07:48:36.596Z,8.44
2023-02-12T07:51:05.946Z,8.52
2023-02-12T07:53:32.584Z,8.57
2023-02-12T07:56:24.923Z,8.61
2023-02-12T07:58:53.639Z,8.71
2023-02-12T08:01:24.225Z,8.78
2023-02-12T08:03:51.471Z,8.85
2023-02-12T08:06:26.361Z,8.97
2023-02-12T08:08:57.958Z,9.00
2023-02-12T08:11:26.122Z,9.07
2023-02-12T08:13:53.158Z,9.08
2023-02-12T08:16:24.688Z,9.11
2023-02-12T08:18:52.112Z,9.07
2023-02-12T08:21:21.679Z,9.12
2023-02-12T08:23:52.183Z,9.15
2023-02-12T08:26:22.762Z,9.19
2023-02-12T08:28:55.548Z,9.28
2023-02-12T08:31:27.506Z,9.35
2023-02-12T08:33:55.249Z,9.44
2023-02-12T08:36:30.265Z,9.60
2023-02-12T08:38:59.889Z,9.73
2023-02-12T08:41:28.982Z,9.93
2023-02-12T08:43:58.154Z,10.15
2023-02-12T08:46:26.934Z,10.45
2023-02-12T08:48:56.172Z,10.64
2023-02-12T08:51:26.160Z,10.83
2023-02-12T08:53:55.809Z,11.05
2023-02-12T08:56:23.538Z,11.31
2023-02-12T08:58:50.888Z,11.60
2023-02-12T09:01:20.784Z,11.88
2023-02-12T09:03:48.492Z,12.21
2023-02-12T09:06:17.599Z,12.46
2023-02-12T09:08:44.346Z,12.73
2023-02-12T09:11:13.742Z,13.04
2023-02-12T09:13:40.982Z,13.21
2023-02-12T09:16:07.874Z,13.41
2023-02-12T09:18:34.932Z,13.67
2023-02-12T09:21:10.100Z,13.96
2023-02-12T09:23:37.650Z,14.22
2023-02-12T09:26:08.696Z,14.34
2023-02-12T09:28:36.087Z,14.54
2023-02-12T09:31:10.825Z,14.65
2023-02-12T09:33:37.630Z,14.77
2023-02-12T09:36:06.498Z,14.96
2023-02-12T09:38:33.374Z,14.96
2023-02-12T09:40:59.941Z,14.85
2023-02-12T09:43:32.648Z,14.76
2023-02-12T09:46:13.678Z,14.69
2023-02-12T09:48:50.601Z,14.58
2023-02-12T09:51:17.378Z,14.54
2023-02-12T09:53:46.989Z,14.61
2023-02-12T09:56:16.378Z,14.64
2023-02-12T09:58:51.076Z,14.68
2023-02-12T10:01:20.537Z,14.76
2023-02-12T10:03:49.795Z,14.80
2023-02-12T10:06:33.656Z,14.79
2023-02-12T10:09:03.326Z,14.79
2023-02-12T10:11:53.167Z,14.80
2023-02-12T10:14:49.680Z,14.87
2023-02-12T10:17:43.131Z,14.99
2023-02-12T10:20:09.702Z,15.08
2023-02-12T10:22:56.162Z,15.13
2023-02-12T10:25:32.714Z,15.16
2023-02-12T10:28:02.820Z,15.27
2023-02-12T10:30:35.282Z,15.30
2023-02-12T10:33:07.633Z,15.28
2023-02-12T10:35:35.580Z,15.30
2023-02-12T10:38:14.003Z,15.20
2023-02-12T10:40:44.933Z,15.10
2023-02-12T10:43:13.306Z,15.06
2023-02-12T10:45:42.989Z,15.06
2023-02-12T10:48:30.237Z,15.13
2023-02-12T10:51:08.937Z,15.17
2023-02-12T10:53:37.321Z,15.24
2023-02-12T10:56:13.317Z,15.28
2023-02-12T10:59:00.515Z,15.24
2023-02-12T11:01:28.710Z,15.26
2023-02-12T11:03:57.278Z,15.27
2023-02-12T11:06:27.821Z,15.27
2023-02-12T11:08:55.016Z,15.26
2023-02-12T11:11:21.957Z,15.20
2023-02-12T11:14:02.706Z,15.14
2023-02-12T11:16:35.608Z,15.14
2023-02-12T11:19:08.801Z,15.16
2023-02-12T11:21:36.544Z,15.11
2023-02-12T11:24:28.292Z,15.13
2023-02-12T11:27:13.678Z,15.11
2023-02-12T11:29:40.718Z,15.20
2023-02-12T11:32:09.746Z,15.24
2023-02-12T11:34:37.096Z,15.28
2023-02-12T11:37:05.212Z,15.40
2023-02-12T11:39:40.016Z,15.45
2023-02-12T11:42:16.863Z,15.52
2023-02-12T11:44:50.289Z,15.54
2023-02-12T11:47:27.331Z,15.51
2023-02-12T11:50:15.918Z,15.52
2023-02-12T11:52:43.265Z,15.55
2023-02-12T11:55:32.295Z,15.52
2023-02-12T11:58:05.923Z,15.44
2023-02-12T12:00:38.074Z,15.32
2023-02-12T12:03:16.309Z,15.27
2023-02-12T12:05:49.972Z,15.21
2023-02-12T12:08:50.002Z,15.16
2023-02-12T12:11:25.130Z,15.08
2023-02-12T12:14:04.145Z,15.08
2023-02-12T12:17:13.844Z,15.08
2023-02-12T12:19:52.697Z,15.03
2023-02-12T12:22:33.451Z,15.00
2023-02-12T12:25:54.608Z,15.02
2023-02-12T12:28:33.379Z,15.06
2023-02-12T12:31:18.006Z,14.97
2023-02-12T12:34:03.539Z,15.02
2023-02-12T12:37:06.825Z,15.00
2023-02-12T12:40:00.214Z,14.92
2023-02-12T12:42:44.906Z,14.85
2023-02-12T12:45:25.617Z,14.85
2023-02-12T12:47:52.168Z,14.86
2023-02-12T12:50:30.853Z,14.82
2023-02-12T12:52:57.484Z,14.79
2023-02-12T12:55:33.300Z,14.77
2023-02-12T12:58:20.801Z,14.75
2023-02-12T13:00:59.720Z,14.68
2023-02-12T13:03:45.618Z,14.69
2023-02-12T13:06:37.351Z,14.76
2023-02-12T13:09:11.054Z,14.83
2023-02-12T13:12:02.291Z,14.86
2023-02-12T13:14:44.332Z,14.93
2023-02-12T13:17:25.864Z,14.96
2023-02-12T13:20:07.490Z,14.86
2023-02-12T13:22:42.665Z,14.82
2023-02-12T13:25:36.804Z,14.80
2023-02-12T13:28:06.074Z,14.77
2023-02-12T13:30:45.186Z,14.73
2023-02-12T13:33:20.599Z,14.73
2023-02-12T13:35:51.797Z,14.76
2023-02-12T13:38:35.052Z,14.79
2023-02-12T13:41:05.974Z,14.76
2023-02-12T13:44:03.314Z,14.80
2023-02-12T13:46:53.777Z,14.80
2023-02-12T13:49:56.641Z,14.85
2023-02-12T13:52:36.884Z,14.85
2023-02-12T13:55:09.676Z,14.83
2023-02-12T13:57:36.309Z,14.85
2023-02-12T14:00:08.457Z,14.87
2023-02-12T14:02:37.256Z,14.93
2023-02-12T14:05:26.426Z,15.00
2023-02-12T14:07:56.331Z,15.04
2023-02-12T14:10:34.017Z,15.04
2023-02-12T14:13:09.659Z,15.07
2023-02-12T14:15:41.076Z,15.10
2023-02-12T14:18:28.218Z,15.13
2023-02-12T14:21:12.734Z,15.03
2023-02-12T14:23:47.280Z,15.06
2023-02-12T14:26:16.436Z,15.07
2023-02-12T14:29:04.386Z,15.06
2023-02-12T14:31:39.376Z,15.03
2023-02-12T14:34:06.104Z,15.06
2023-02-12T14:36:32.680Z,15.10
2023-02-12T14:39:20.542Z,15.11
2023-02-12T14:41:48.966Z,15.17
2023-02-12T14:44:18.453Z,15.17
2023-02-12T14:46:49.332Z,15.14
2023-02-12T14:49:55.719Z,15.11
2023-02-12T14:52:28.819Z,15.13
2023-02-12T14:54:56.965Z,15.14
2023-02-12T14:57:27.884Z,15.16
2023-02-12T15:00:34.079Z,15.19
2023-02-12T15:03:12.672Z,15.20
2023-02-12T15:06:07.122Z,15.21
2023-02-12T15:08:57.660Z,15.21
2023-02-12T15:11:33.661Z,15.27
2023-02-12T15:14:21.276Z,15.24
2023-02-12T15:17:33.658Z,15.26
2023-02-12T15:20:22.628Z,15.27
2023-02-12T15:22:49.314Z,15.28
2023-02-12T15:25:26.602Z,15.28
2023-02-12T15:28:00.670Z,15.27
2023-02-12T15:30:32.000Z,15.28
2023-02-12T15:33:02.448Z,15.32
2023-02-12T15:35:33.431Z,15.31
2023-02-12T15:38:01.285Z,15.32
2023-02-12T15:40:31.932Z,15.30
2023-02-12T15:43:04.540Z,15.26
2023-02-12T15:45:34.082Z,15.24
2023-02-12T15:48:10.105Z,15.20
2023-02-12T15:50:47.884Z,15.23
2023-02-12T15:53:15.888Z,15.19
2023-02-12T15:55:47.764Z,15.17
2023-02-12T15:58:22.260Z,15.16
2023-02-12T16:00:49.593Z,15.19
2023-02-12T16:03:32.541Z,15.20
2023-02-12T16:06:06.526Z,15.20
2023-02-12T16:08:35.566Z,15.17
2023-02-12T16:11:13.751Z,15.14
2023-02-12T16:13:45.443Z,15.10
2023-02-12T16:16:12.009Z,15.08
2023-02-12T16:18:40.542Z,15.04
2023-02-12T16:21:20.518Z,15.00
2023-02-12T16:23:50.062Z,14.97
2023-02-12T16:26:23.477Z,14.92
2023-02-12T16:28:54.332Z,14.92
2023-02-12T16:31:25.772Z,14.90
2023-02-12T16:33:56.175Z,14.86
2023-02-12T16:36:22.825Z,14.79
2023-02-12T16:38:53.609Z,14.76
2023-02-12T16:41:20.479Z,14.73
2023-02-12T16:43:49.493Z,14.72
2023-02-12T16:46:19.630Z,14.68
2023-02-12T16:48:51.830Z,14.65
2023-02-12T16:51:23.295Z,14.59
2023-02-12T16:53:53.867Z,14.59
2023-02-12T16:56:22.524Z,14.56
2023-02-12T16:58:52.244Z,14.54
2023-02-12T17:01:22.914Z,14.55
2023-02-12T17:03:58.288Z,14.49
2023-02-12T17:06:30.251Z,14.46
2023-02-12T17:08:57.872Z,14.46
2023-02-12T17:11:25.864Z,14.41
2023-02-12T17:13:54.422Z,14.39
2023-02-12T17:16:30.801Z,14.37
2023-02-12T17:18:59.701Z,14.32
2023-02-12T17:21:38.079Z,14.27
2023-02-12T17:24:22.171Z,14.22
2023-02-12T17:26:50.847Z,14.22
2023-02-12T17:29:18.338Z,14.17
2023-02-12T17:31:45.368Z,14.13
2023-02-12T17:34:12.147Z,14.16
2023-02-12T17:36:38.884Z,14.14
2023-02-12T17:39:08.198Z,14.11
2023-02-12T17:41:35.211Z,14.10
2023-02-12T17:44:01.986Z,14.07
2023-02-12T17:46:29.250Z,14.03
2023-02-12T17:48:57.673Z,14.00
2023-02-12T17:51:25.072Z,14.04
2023-02-12T17:53:51.729Z,13.99
2023-02-12T17:56:21.201Z,13.94
2023-02-12T17:58:48.761Z,13.91
2023-02-12T18:01:17.732Z,13.90
2023-02-12T18:03:44.538Z,13.86
2023-02-12T18:06:14.236Z,13.84
2023-02-12T18:08:41.649Z,13.87
2023-02-12T18:11:11.014Z,13.86
2023-02-12T18:13:38.051Z,13.79
2023-02-12T18:16:10.062Z,13.70
2023-02-12T18:18:37.176Z,13.67
2023-02-12T18:21:11.657Z,13.61
2023-02-12T18:23:39.155Z,13.61
2023-02-12T18:26:14.284Z,13.59
2023-02-12T18:28:41.257Z,13.56
2023-02-12T18:31:08.775Z,13.55
2023-02-12T18:33:36.232Z,13.51
2023-02-12T18:36:07.504Z,13.52
2023-02-12T18:38:36.122Z,13.49
2023-02-12T18:41:08.223Z,13.46
2023-02-12T18:43:36.129Z,13.42
2023-02-12T18:46:13.892Z,13.41
2023-02-12T18:48:41.651Z,13.37
2023-02-12T18:51:10.349Z,13.31
2023-02-12T18:53:37.098Z,13.32
2023-02-12T18:56:05.892Z,13.21
2023-02-12T18:58:32.907Z,13.15
2023-02-12T19:01:00.190Z,13.10
2023-02-12T19:03:27.365Z,13.11
2023-02-12T19:05:54.189Z,13.03
2023-02-12T19:08:20.849Z,12.94
2023-02-12T19:10:49.500Z,12.91
2023-02-12T19:13:16.130Z,12.84
2023-02-12T19:15:42.974Z,12.79
2023-02-12T19:18:09.556Z,12.76
2023-02-12T19:20:40.109Z,12.76
2023-02-12T19:23:06.811Z,12.67
2023-02-12T19:25:43.207Z,12.60
2023-02-12T19:28:10.747Z,12.53
2023-02-12T19:30:39.126Z,12.52
2023-02-12T19:33:05.980Z,12.48
2023-02-12T19:35:33.590Z,12.42
2023-02-12T19:38:01.786Z,12.34
2023-02-12T19:40:28.498Z,12.26
2023-02-12T19:42:55.109Z,12.21
2023-02-12T19:45:21.778Z,12.20
2023-02-12T19:47:50.744Z,12.14
2023-02-12T19:50:17.375Z,12.08
2023-02-12T19:52:43.975Z,12.04
2023-02-12T19:55:10.571Z,12.07
2023-02-12T19:57:38.631Z,12.05
2023-02-12T20:00:06.479Z,12.02
2023-02-12T20:02:33.668Z,12.01
2023-02-12T20:05:00.339Z,11.95
2023-02-12T20:07:27.002Z,11.93
2023-02-12T20:09:53.671Z,11.86
2023-02-12T20:12:20.365Z,11.81
2023-02-12T20:14:46.978Z,11.80
2023-02-12T20:17:14.377Z,11.77
2023-02-12T20:19:40.997Z,11.79
2023-02-12T20:22:07.650Z,11.77
2023-02-12T20:24:34.626Z,11.76
2023-02-12T20:27:02.602Z,11.74
2023-02-12T20:29:29.399Z,11.77
2023-02-12T20:31:56.215Z,11.71
2023-02-12T20:34:23.000Z,11.73
2023-02-12T20:36:49.845Z,11.71
2023-02-12T20:39:19.098Z,11.73
2023-02-12T20:41:46.527Z,11.73
2023-02-12T20:44:16.075Z,11.74
2023-02-12T20:46:45.977Z,11.74
2023-02-12T20:49:14.482Z,11.74
2023-02-12T20:51:41.299Z,11.74
2023-02-12T20:54:08.198Z,11.77
2023-02-12T20:56:36.167Z,11.80
2023-02-12T20:59:04.382Z,11.76
2023-02-12T21:01:34.887Z,11.71
2023-02-12T21:04:05.013Z,11.69
2023-02-12T21:06:32.657Z,11.71
2023-02-12T21:08:59.290Z,11.70
2023-02-12T21:11:28.606Z,11.71
2023-02-12T21:14:12.515Z,11.71
2023-02-12T21:16:44.821Z,11.76
2023-02-12T21:19:13.986Z,11.74
2023-02-12T21:21:41.846Z,11.73
2023-02-12T21:24:12.907Z,11.71
2023-02-12T21:26:39.530Z,11.73
2023-02-12T21:29:06.214Z,11.73
2023-02-12T21:31:44.872Z,11.67
2023-02-12T21:34:14.714Z,11.63
2023-02-12T21:36:42.354Z,11.56
2023-02-12T21:39:12.687Z,11.56
2023-02-12T21:41:40.857Z,11.50
2023-02-12T21:44:13.373Z,11.46
2023-02-12T21:46:40.866Z,11.38
2023-02-12T21:49:08.413Z,11.33
2023-02-12T21:51:38.706Z,11.32
2023-02-12T21:54:08.799Z,11.29
2023-02-12T21:56:44.233Z,11.32
2023-02-12T21:59:11.318Z,11.29
2023-02-12T22:01:43.006Z,11.28
2023-02-12T22:04:10.519Z,11.24
2023-02-12T22:06:40.353Z,11.21
2023-02-12T22:09:08.839Z,11.15
2023-02-12T22:11:37.368Z,11.11
2023-02-12T22:14:04.981Z,11.07
2023-02-12T22:16:31.858Z,11.04
2023-02-12T22:19:01.784Z,10.95
2023-02-12T22:21:35.104Z,10.94
2023-02-12T22:24:06.904Z,10.94
2023-02-12T22:26:34.008Z,10.97
2023-02-12T22:29:09.927Z,10.97
2023-02-12T22:31:39.074Z,11.00
2023-02-12T22:34:09.882Z,11.05
2023-02-12T22:36:37.929Z,11.03
2023-02-12T22:39:05.397Z,11.00
2023-02-12T22:41:32.892Z,10.97
2023-02-12T22:44:01.117Z,11.00
2023-02-12T22:46:28.074Z,10.94
2023-02-12T22:48:54.723Z,10.93
2023-02-12T22:51:27.412Z,10.91
2023-02-12T22:53:55.283Z,10.93
2023-02-12T22:56:22.895Z,10.94
2023-02-12T22:58:57.201Z,10.94
2023-02-12T23:01:24.862Z,10.93
2023-02-12T23:03:51.911Z,10.87
2023-02-12T23:06:21.267Z,10.81
2023-02-12T23:08:52.819Z,10.85
2023-02-12T23:11:20.110Z,10.85
2023-02-12T23:13:47.398Z,10.83
2023-02-12T23:16:14.048Z,10.77
2023-02-12T23:18:40.604Z,10.73
2023-02-12T23:21:07.278Z,10.67
2023-02-12T23:23:33.882Z,10.61
2023-02-12T23:26:00.829Z,10.57
2023-02-12T23:28:27.567Z,10.53
2023-02-12T23:30:54.337Z,10.49
2023-02-12T23:33:21.363Z,10.46
2023-02-12T23:35:48.701Z,10.48
2023-02-12T23:38:16.611Z,10.48
2023-02-12T23:40:43.669Z,10.46
2023-02-12T23:43:10.904Z,10.40
2023-02-12T23:45:37.708Z,10.35
2023-02-12T23:48:04.449Z,10.35
2023-02-12T23:50:31.292Z,10.35
2023-02-12T23:52:59.335Z,10.36
2023-02-12T23:55:26.201Z,10.36
2023-02-12T23:57:52.911Z,10.33
